Order Tray | Contact Us | Home | SIG Lists

[aprssig] UI-View D700 GPS help

William McKeehan mckeehan at mckeehan.homeip.net
Tue Aug 30 20:06:14 UTC 2005


Something like this?


$GPRMC,195456,A,3609.193,N,08333.413,W,000.0,360.0,300805,005.3,W*7B
$GPRMC,195506,A,3609.193,N,08333.413,W,000.0,360.0,300805,005.3,W*7F
$GPRMC,195516,A,3609.193,N,08333.413,W,000.0,360.0,300805,005.3,W*7E
$GPRMC,195526,A,3609.193,N,08333.413,W,000.0,360.0,300805,005.3,W*7D
$GPRMC,195536,A,3609.193,N,08333.413,W,000.0,360.0,300805,005.3,W*7C
$GPRMC,195546,A,3609.193,N,08333.413,W,000.0,360.0,300805,005.3,W*7B
$GPRMC,195556,A,3609.193,N,08333.413,W,000.0,360.0,300805,005.3,W*7A
$GPRMC,195606,A,3609.193,N,08333.413,W,000.0,360.0,300805,005.3,W*7C
WO4U-10>APW251,WO4U,WA4KJH-7*
<UI>:_08302101c203s005g009t069r002p075P046h99b10014wU2K

KF4CFO-7>APU25N,WA4KJH-7*,WIDE,WIDE <UI C>:>062056z..Fill in digi between Knox
& Chatt..R/W/Wn-n..Ui-V 32.

$GPRMC,195616,A,3609.193,N,08333.413,W,000.0,360.0,300805,005.3,W*7D
KF4CFO-7>APU25N,WA4YYM,W4LAW-3,WA4KJH-7* <UI C>:>062056z..Fill in digi between
Knox & Chatt..R/W/Wn-n..Ui-V 32.

$GPRMC,195626,A,3609.193,N,08333.413,W,000.0,360.0,300805,005.3,W*7E
$GPRMC,195636,A,3609.193,N,08333.413,W,000.0,360.0,300805,005.3,W*7F
$GPRMC,195646,A,3609.193,N,08333.413,W,000.0,360.0,300805,005.3,W*78
$GPRMC,195656,A,3609.193,N,08333.413,W,000.0,360.0,300805,005.3,W*79
$GPRMC,195706,A,3609.193,N,08333.413,W,000.0,360.0,300805,005.3,W*7D
K4CHT-2>APTW01,WA4KJH-7*,WIDE
<UI>:_08301552c145s011g021t089r000p091P024h28b10031tRSW
$GPRMC,195716,A,3609.193,N,08333.413,W,000.0,360.0,300805,005.3,W*7C
KF4KJT-2>SVPR0Q,WIDE,IGATE <UI R>:'o?&l Lk/]"8-}

KF4KJT-2>SVPR0Q,WA4KJH-7*,IGATE <UI R>:'o?&l Lk/]"8-}

WA4RYW-1>APS224,WA4KJH-7*,WIDE4-4 <UI
R>:;IRLP-5700*092018z3541.60N\08337.40WL000/000/IRLP Node #5700 - 443.300 MHz
+5MHz 100Hz PL /A=004100

$GPRMC,195726,A,3609.193,N,08333.413,W,000.0,360.0,300805,005.3,W*7F
W9THI>APW251,WA4KJH-7*,WIDE,WIDE <UI R>:=3557.76N/08504.01W-PHG7258/>>> John
in Crossville TN <<< -TNCUMCROSSVIL-251-<630>

$GPRMC,195736,A,3609.193,N,08333.413,W,000.0,360.0,300805,005.3,W*7E
W9THI>APW251,KF4CFO-7,WA4KJH-7*,WIDE <UI R>:=3557.76N/08504.01W-PHG7258/>>>
John in Crossville TN <<< -TNCUMCROSSVIL-251-<630>

$GPRMC,195746,A,3609.193,N,08333.413,W,000.0,360.0,300805,005.3,W*79
$GPRMC,195756,A,3609.193,N,08333.413,W,000.0,360.0,300805,005.3,W*78
$GPRMC,195806,A,3609.193,N,08333.413,W,000.0,360.0,300805,005.3,W*72
$GPRMC,195816,A,3609.193,N,08333.413,W,000.0,360.0,300805,005.3,W*73
$GPRMC,195826,A,3609.193,N,08333.413,W,000.0,360.0,300805,005.3,W*70
$GPRMC,195836,A,3609.193,N,08333.413,W,000.0,360.0,300805,005.3,W*71
$GPRMC,195846,A,3609.193,N,08333.413,W,000.0,360.0,300805,005.3,W*76
$GPRMC,195856,A,3609.193,N,08333.413,W,000.0,360.0,300805,005.3,W*77
$GPRMC,195906,A,3609.193,N,08333.413,W,000.0,360.0,300805,005.3,W*73
$GPRMC,195916,A,3609.193,N,08333.413,W,000.0,360.0,300805,005.3,W*72
$GPRMC,195926,A,3609.193,N,08333.413,W,000.0,360.0,300805,005.3,W*71
$GPRMC,195936,A,3609.193,N,08333.413,W,000.0,360.0,300805,005.3,W*70
$GPRMC,195946,A,3609.193,N,08333.413,W,000.0,360.0,300805,005.3,W*77
$GPRMC,195956,A,3609.193,N,08333.413,W,000.0,360.0,300805,005.3,W*76
$GPRMC,200006,A,3609.193,N,08333.413,W,000.0,360.0,300805,005.3,W*75
$GPRMC,200016,A,3609.193,N,08333.413,W,000.0,360.0,300805,005.3,W*74
WA4RYW-1>APS224,WA4KJH-7*,WIDE4-4 <UI R>:=3550.04N\08414.93W&PHG2070 IGATE
IGDN - EM75vu - Loudon County /A=000980

KF4KJT-2>SVPR0Q,WIDE,IGATE <UI R>:'o?&l Lk/]"8,}73 & God Bless!

KF4KJT-2>SVPR0Q,WA4KJH-7*,IGATE <UI R>:'o?&l Lk/]"8,}73 & God Bless!

KF4KJT-2>SVPR0Q,KI4HDU-2*,WA4KJH-7,WIDE <UI>:'o?&l Lk/]"8,}73 & God Bless!

KF4KJT-2>SVPR0Q,KI4HDU-2,WA4KJH-7*,WIDE <UI>:'o?&l Lk/]"8,}73 & God Bless!

$GPRMC,200027,A,3609.193,N,08333.413,W,000.0,360.0,300805,005.3,W*76
$GPRMC,200037,A,3609.193,N,08333.413,W,000.0,360.0,300805,005.3,W*77
cmd:
cmd:CONV
$GPRMC,200047,A,3609.193,N,08333.413,W,000.0,360.0,300805,005.3,W*70
W4LAW-3>BEACON,WA4KJH-7*,WIDE,WIDE <UI>:!3512.55NN08516.65W#PHG5830/W-R-T-TN,
Signal Mtn.

$GPRMC,200057,A,3609.193,N,08333.413,W,000.0,360.0,300805,005.3,W*71
$GPRMC,200107,A,3609.193,N,08333.413,W,000.0,360.0,300805,005.3,W*75
$GPRMC,200117,A,3609.193,N,08333.413,W,000.0,360.0,300805,005.3,W*74
$GPRMC,200127,A,3609.193,N,08333.413,W,000.0,360.0,300805,005.3,W*77
$GPRMC,200137,A,3609.193,N,08333.413,W,000.0,360.0,300805,005.3,W*76
$GPRMC,200147,A,3609.193,N,08333.413,W,000.0,360.0,300805,005.3,W*71
$GPRMC,200157,A,3609.193,N,08333.413,W,000.0,360.0,300805,005.3,W*70
$GPRMC,200207,A,3609.193,N,08333.413,W,000.0,360.0,300805,005.3,W*76
K4CHT-2>APTW01,WA4KJH-7*,WIDE
<UI>:_08301557c187s012g017t087r000p091P024h29b10031tRSW
$GPRMC,200217,A,3609.193,N,08333.413,W,000.0,360.0,300805,005.3,W*77
WA4KJH-7>APRS,WIDE <UI C>:!3541.60NT08337.30W#PHG5860/W-R-T-TN ON COVE MTN
@4175 FEET

$GPRMC,200227,A,3609.193,N,08333.413,W,000.0,360.0,300805,005.3,W*74
$GPRMC,200237,A,3609.193,N,08333.413,W,000.0,360.0,300805,005.3,W*75
$GPRMC,200247,A,3609.193,N,08333.413,W,000.0,360.0,300805,005.3,W*72
$GPRMC,200257,A,3609.193,N,08333.413,W,000.0,360.0,300805,005.3,W*73
$GPRMC,200307,A,3609.193,N,08333.413,W,000.0,360.0,300805,005.3,W*77
$GPRMC,200317,A,3609.193,N,08333.413,W,000.0,360.0,300805,005.3,W*76
KF4KJT-2>SVPR0Q,WA4KJH-7*,IGATE <UI R>:'o?&l Lk/]"80}

$GPRMC,200327,A,3609.193,N,08333.413,W,000.0,360.0,300805,005.3,W*75
$GPRMC,200337,A,3609.193,N,08333.413,W,000.0,360.0,300805,005.3,W*74
$GPRMC,200347,A,3609.193,N,08333.413,W,000.0,360.0,300805,005.3,W*73
WA4RYW-1>APS224,WA4KJH-7*,WIDE4-4 <UI R>:>262056z[224]East Tennesee IGATE

$GPRMC,200357,A,3609.193,N,08333.413,W,000.0,360.0,300805,005.3,W*72
$GPRMC,200407,A,3609.193,N,08333.413,W,000.0,360.0,300805,005.3,W*70
$GPRMC,200417,A,3609.193,N,08333.413,W,000.0,360.0,300805,005.3,W*71
$GPRMC,200427,A,3609.193,N,08333.413,W,000.0,360.0,300805,005.3,W*72
$GPRMC,200437,A,3609.193,N,08333.413,W,000.0,360.0,300805,005.3,W*73
$GPRMC,200447,A,3609.193,N,08333.413,W,000.0,360.0,300805,005.3,W*74
$GPRMC,200457,A,3609.193,N,08333.413,W,000.0,360.0,300805,005.3,W*75


On Tue, August 30, 2005 4:03 pm, Andrew Rich said:
> send us some
>
> -----Original Message-----
> From: aprssig-bounces at lists.tapr.org
> [mailto:aprssig-bounces at lists.tapr.org]On Behalf Of William McKeehan
> Sent: Wednesday, 31 August 2005 6:01 AM
> To: aprssig at lists.tapr.org
> Subject: [aprssig] UI-View D700 GPS help
>
>
> Can someone point me to a mailing list where I can get some help using
> UI-View
> with my D700?
>
> I'm having problems with the Shared GPS settings...it does not appear to be
> working. I see the $GPRMC lines in the terminal window, but nothing shows up
> in the "Show GPS Input" window.
>
> Thanks for any guidance.
> --
> William McKeehan
> KI4HDU
> Internet: mckeehan at mckeehan.homeip.net
> http://mckeehan.homeip.net
>
> _______________________________________________
> aprssig mailing list
> aprssig at lists.tapr.org
> https://lists.tapr.org/cgi-bin/mailman/listinfo/aprssig
>
>
>
> _______________________________________________
> aprssig mailing list
> aprssig at lists.tapr.org
> https://lists.tapr.org/cgi-bin/mailman/listinfo/aprssig
>


-- 
William McKeehan
KI4HDU
Internet: mckeehan at mckeehan.homeip.net
http://mckeehan.homeip.net




More information about the aprssig mailing list